createdAt,value
2022-09-01T00:00:18.111Z,14.44
2022-09-01T00:01:18.128Z,14.41
2022-09-01T00:02:18.160Z,14.36
2022-09-01T00:03:18.119Z,14.35
2022-09-01T00:04:18.128Z,14.33
2022-09-01T00:05:18.065Z,14.36
2022-09-01T00:06:18.060Z,14.37
2022-09-01T00:07:18.038Z,14.37
2022-09-01T00:08:18.230Z,14.40
2022-09-01T00:09:18.025Z,14.36
2022-09-01T00:10:18.022Z,14.35
2022-09-01T00:11:18.001Z,14.32
2022-09-01T00:12:17.972Z,14.29
2022-09-01T00:13:18.004Z,14.26
2022-09-01T00:14:30.598Z,14.23
2022-09-01T00:15:18.944Z,14.20
2022-09-01T00:16:17.962Z,14.20
2022-09-01T00:17:17.919Z,14.17
2022-09-01T00:18:18.087Z,14.14
2022-09-01T00:19:17.915Z,14.14
2022-09-01T00:20:20.433Z,14.10
2022-09-01T00:21:17.880Z,14.08
2022-09-01T00:22:17.875Z,14.05
2022-09-01T00:23:17.905Z,14.03
2022-09-01T00:24:17.855Z,13.97
2022-09-01T00:25:17.859Z,13.95
2022-09-01T00:26:17.822Z,13.92
2022-09-01T00:27:17.821Z,13.90
2022-09-01T00:28:17.906Z,13.86
2022-09-01T00:29:17.805Z,13.86
2022-09-01T00:30:17.779Z,13.83
2022-09-01T00:31:17.838Z,13.81
2022-09-01T00:32:17.769Z,13.78
2022-09-01T00:33:17.784Z,13.81
2022-09-01T00:34:17.731Z,13.85
2022-09-01T00:35:17.720Z,13.81
2022-09-01T00:36:17.712Z,13.83
2022-09-01T00:37:17.699Z,13.83
2022-09-01T00:38:17.789Z,13.86
2022-09-01T00:39:17.693Z,13.85
2022-09-01T00:40:17.718Z,13.92
2022-09-01T00:41:17.662Z,13.93
2022-09-01T00:42:17.664Z,13.97
2022-09-01T00:43:17.678Z,13.99
2022-09-01T00:44:17.636Z,14.00
2022-09-01T00:45:17.623Z,14.00
2022-09-01T00:46:18.382Z,13.97
2022-09-01T00:47:17.587Z,13.93
2022-09-01T00:48:17.599Z,13.93
2022-09-01T00:49:17.558Z,13.93
2022-09-01T00:50:17.556Z,13.95
2022-09-01T00:51:17.555Z,13.93
2022-09-01T00:52:17.537Z,13.90
2022-09-01T00:53:17.555Z,13.86
2022-09-01T00:54:17.515Z,13.83
2022-09-01T00:55:17.530Z,13.83
2022-09-01T00:56:17.495Z,13.83
2022-09-01T00:57:17.485Z,13.83
2022-09-01T00:58:19.478Z,13.85
2022-09-01T00:59:17.463Z,13.81
2022-09-01T01:00:17.453Z,13.79
2022-09-01T01:01:17.470Z,13.81
2022-09-01T01:02:17.461Z,13.85
2022-09-01T01:03:17.439Z,13.85
2022-09-01T01:04:17.398Z,13.81
2022-09-01T01:05:17.411Z,13.83
2022-09-01T01:06:17.375Z,13.81
2022-09-01T01:07:17.383Z,13.83
2022-09-01T01:08:17.405Z,13.87
2022-09-01T01:09:17.366Z,13.89
2022-09-01T01:10:17.356Z,13.89
2022-09-01T01:11:17.325Z,13.92
2022-09-01T01:12:17.316Z,13.89
2022-09-01T01:13:17.340Z,13.87
2022-09-01T01:14:17.297Z,13.87
2022-09-01T01:15:17.286Z,13.86
2022-09-01T01:16:17.301Z,13.85
2022-09-01T01:17:17.261Z,13.83
2022-09-01T01:18:23.025Z,13.85
2022-09-01T01:19:18.241Z,13.85
2022-09-01T01:20:17.213Z,13.83
2022-09-01T01:21:17.213Z,13.86
2022-09-01T01:22:17.187Z,13.83
2022-09-01T01:23:17.177Z,13.87
2022-09-01T01:24:17.200Z,13.86
2022-09-01T01:25:17.178Z,13.86
2022-09-01T01:26:17.160Z,13.87
2022-09-01T01:27:17.137Z,13.87
2022-09-01T01:28:17.177Z,13.90
2022-09-01T01:29:17.170Z,13.92
2022-09-01T01:30:17.109Z,13.95
2022-09-01T01:31:17.138Z,13.99
2022-09-01T01:32:17.097Z,13.99
2022-09-01T01:33:17.124Z,14.00
2022-09-01T01:34:17.073Z,13.99
2022-09-01T01:35:17.070Z,13.99
2022-09-01T01:36:17.027Z,13.97
2022-09-01T01:37:17.038Z,13.96
2022-09-01T01:38:17.064Z,13.96
2022-09-01T01:39:17.026Z,13.95
2022-09-01T01:40:17.053Z,13.95
2022-09-01T01:41:17.005Z,13.95
2022-09-01T01:42:17.004Z,13.92
2022-09-01T01:43:17.006Z,13.92
2022-09-01T01:44:16.964Z,13.92
2022-09-01T01:45:16.961Z,13.89
2022-09-01T01:46:16.958Z,13.89
2022-09-01T01:47:16.924Z,13.87
2022-09-01T01:48:17.004Z,13.86
2022-09-01T01:49:16.901Z,13.86
2022-09-01T01:50:16.905Z,13.83
2022-09-01T01:51:16.882Z,13.83
2022-09-01T01:52:16.853Z,13.81
2022-09-01T01:53:16.882Z,13.79
2022-09-01T01:54:17.837Z,13.79
2022-09-01T01:55:16.842Z,13.79
2022-09-01T01:56:16.808Z,13.78
2022-09-01T01:57:16.796Z,13.78
2022-09-01T01:58:16.825Z,13.77
2022-09-01T01:59:16.772Z,13.75
2022-09-01T02:00:16.766Z,13.74
2022-09-01T02:01:16.836Z,13.74
2022-09-01T02:02:16.827Z,13.72
2022-09-01T02:03:16.784Z,13.71
2022-09-01T02:04:16.736Z,13.70
2022-09-01T02:05:16.721Z,13.68
2022-09-01T02:06:16.710Z,13.68
2022-09-01T02:07:16.720Z,13.70
2022-09-01T02:08:16.746Z,13.68
2022-09-01T02:09:16.678Z,13.67
2022-09-01T02:10:16.664Z,13.63
2022-09-01T02:11:16.668Z,13.63
2022-09-01T02:12:16.629Z,13.62
2022-09-01T02:13:16.668Z,13.65
2022-09-01T02:14:16.612Z,13.65
2022-09-01T02:15:16.614Z,13.67
2022-09-01T02:16:16.636Z,13.70
2022-09-01T02:17:16.579Z,13.65
2022-09-01T02:18:16.838Z,13.65
2022-09-01T02:19:16.565Z,13.65
2022-09-01T02:20:16.559Z,13.65
2022-09-01T02:21:18.545Z,13.67
2022-09-01T02:22:16.507Z,13.68
2022-09-01T02:23:16.566Z,13.70
2022-09-01T02:24:16.487Z,13.71
2022-09-01T02:25:16.495Z,13.70
2022-09-01T02:26:17.748Z,13.71
2022-09-01T02:27:16.474Z,13.71
2022-09-01T02:28:16.544Z,13.70
2022-09-01T02:29:16.481Z,13.72
2022-09-01T02:30:16.451Z,13.72
2022-09-01T02:31:16.460Z,13.74
2022-09-01T02:32:16.413Z,13.75
2022-09-01T02:33:16.445Z,13.74
2022-09-01T02:34:16.369Z,13.74
2022-09-01T02:35:16.373Z,13.75
2022-09-01T02:36:16.357Z,13.75
2022-09-01T02:37:16.355Z,13.75
2022-09-01T02:38:16.458Z,13.75
2022-09-01T02:39:16.329Z,13.75
2022-09-01T02:40:16.426Z,13.77
2022-09-01T02:41:16.323Z,13.75
2022-09-01T02:42:16.303Z,13.75
2022-09-01T02:43:16.320Z,13.72
2022-09-01T02:44:16.279Z,13.75
2022-09-01T02:45:16.281Z,13.75
2022-09-01T02:46:16.345Z,13.72
2022-09-01T02:47:16.249Z,13.71
2022-09-01T02:48:16.349Z,13.71
2022-09-01T02:49:16.206Z,13.70
2022-09-01T02:50:16.206Z,13.68
2022-09-01T02:51:16.192Z,13.65
2022-09-01T02:52:16.201Z,13.65
2022-09-01T02:53:16.212Z,13.65
2022-09-01T02:54:16.173Z,13.67
2022-09-01T02:55:16.157Z,13.65
2022-09-01T02:56:16.158Z,13.65
2022-09-01T02:57:16.126Z,13.67
2022-09-01T02:58:16.208Z,13.67
2022-09-01T02:59:16.110Z,13.68
2022-09-01T03:00:16.100Z,13.67
2022-09-01T03:01:16.155Z,13.68
2022-09-01T03:02:16.077Z,13.68
2022-09-01T03:03:16.086Z,13.67
2022-09-01T03:04:16.060Z,13.65
2022-09-01T03:05:16.040Z,13.62
2022-09-01T03:06:16.033Z,13.60
2022-09-01T03:07:16.011Z,13.59
2022-09-01T03:08:16.091Z,13.60
2022-09-01T03:09:15.984Z,13.62
2022-09-01T03:10:15.975Z,13.63
2022-09-01T03:11:15.960Z,13.63
2022-09-01T03:12:15.947Z,13.65
2022-09-01T03:13:16.000Z,13.67
2022-09-01T03:14:15.936Z,13.70
2022-09-01T03:15:15.970Z,13.70
2022-09-01T03:16:15.952Z,13.70
2022-09-01T03:17:15.908Z,13.68
2022-09-01T03:18:15.960Z,13.68
2022-09-01T03:19:15.889Z,13.67
2022-09-01T03:20:15.874Z,13.65
2022-09-01T03:21:15.846Z,13.63
2022-09-01T03:22:15.853Z,13.63
2022-09-01T03:23:15.834Z,13.63
2022-09-01T03:24:15.854Z,13.63
2022-09-01T03:25:15.804Z,13.63
2022-09-01T03:26:15.822Z,13.62
2022-09-01T03:27:15.783Z,13.60
2022-09-01T03:28:15.869Z,13.57
2022-09-01T03:29:15.799Z,13.60
2022-09-01T03:30:15.777Z,13.60
2022-09-01T03:31:15.817Z,13.59
2022-09-01T03:32:15.787Z,13.60
2022-09-01T03:33:15.735Z,13.59
2022-09-01T03:34:15.761Z,13.57
2022-09-01T03:35:15.723Z,13.56
2022-09-01T03:36:15.705Z,13.56
2022-09-01T03:37:15.669Z,13.54
2022-09-01T03:38:15.679Z,13.54
2022-09-01T03:39:16.869Z,13.53
2022-09-01T03:40:15.726Z,13.50
2022-09-01T03:41:15.627Z,13.49
2022-09-01T03:42:15.634Z,13.50
2022-09-01T03:43:15.603Z,13.47
2022-09-01T03:44:15.641Z,13.42
2022-09-01T03:45:15.579Z,13.41
2022-09-01T03:46:15.624Z,13.39
2022-09-01T03:47:15.552Z,13.39
2022-09-01T03:48:15.545Z,13.42
2022-09-01T03:49:15.846Z,13.44
2022-09-01T03:50:15.538Z,13.46
2022-09-01T03:51:15.535Z,13.47
2022-09-01T03:52:15.514Z,13.47
2022-09-01T03:53:15.492Z,13.44
2022-09-01T03:54:15.539Z,13.46
2022-09-01T03:55:15.473Z,13.46
2022-09-01T03:56:15.472Z,13.44
2022-09-01T03:57:15.452Z,13.42
2022-09-01T03:58:15.457Z,13.44
2022-09-01T03:59:15.476Z,13.44
2022-09-01T04:00:15.417Z,13.44
2022-09-01T04:01:15.439Z,13.44
2022-09-01T04:02:15.490Z,13.42
2022-09-01T04:03:15.391Z,13.41
2022-09-01T04:04:15.423Z,13.41
2022-09-01T04:05:15.371Z,13.38
2022-09-01T04:06:15.367Z,13.35
2022-09-01T04:07:19.047Z,13.28
2022-09-01T04:08:15.333Z,13.27
2022-09-01T04:09:15.355Z,13.27
2022-09-01T04:10:15.329Z,13.27
2022-09-01T04:11:15.294Z,13.27
2022-09-01T04:12:15.307Z,13.25
2022-09-01T04:13:15.280Z,13.27
2022-09-01T04:14:15.318Z,13.25
2022-09-01T04:15:15.255Z,13.27
2022-09-01T04:16:15.349Z,13.27
2022-09-01T04:17:15.223Z,13.28
2022-09-01T04:18:15.221Z,13.27
2022-09-01T04:19:15.281Z,13.27
2022-09-01T04:20:15.203Z,13.27
2022-09-01T04:21:16.186Z,13.27
2022-09-01T04:22:15.170Z,13.27
2022-09-01T04:23:15.148Z,13.28
2022-09-01T04:24:15.139Z,13.30
2022-09-01T04:25:15.171Z,13.28
2022-09-01T04:26:15.143Z,13.30
2022-09-01T04:27:15.128Z,13.30
2022-09-01T04:28:15.113Z,13.31
2022-09-01T04:29:15.095Z,13.33
2022-09-01T04:30:15.112Z,13.37
2022-09-01T04:31:15.148Z,13.38
2022-09-01T04:32:15.079Z,13.39
2022-09-01T04:33:15.061Z,13.42
2022-09-01T04:34:15.051Z,13.42
2022-09-01T04:35:15.085Z,13.44
2022-09-01T04:36:15.026Z,13.46
2022-09-01T04:37:15.154Z,13.47
2022-09-01T04:38:14.996Z,13.49
2022-09-01T04:39:14.993Z,13.49
2022-09-01T04:40:15.099Z,13.50
2022-09-01T04:41:14.981Z,13.52
2022-09-01T04:42:14.955Z,13.53
2022-09-01T04:43:14.918Z,13.57
2022-09-01T04:44:14.932Z,13.59
2022-09-01T04:45:19.954Z,13.59
2022-09-01T04:46:15.945Z,13.60
2022-09-01T04:47:14.886Z,13.62
2022-09-01T04:48:14.902Z,13.65
2022-09-01T04:49:14.895Z,13.65
2022-09-01T04:50:15.174Z,13.70
2022-09-01T04:51:14.865Z,13.70
2022-09-01T04:52:14.866Z,13.71
2022-09-01T04:53:14.832Z,13.74
2022-09-01T04:54:14.838Z,13.75
2022-09-01T04:55:14.841Z,13.78
2022-09-01T04:56:14.806Z,13.81
2022-09-01T04:57:14.764Z,13.85
2022-09-01T04:58:14.758Z,13.86
2022-09-01T04:59:14.745Z,13.89
2022-09-01T05:00:14.779Z,13.92
2022-09-01T05:01:14.762Z,13.92
2022-09-01T05:02:14.821Z,13.96
2022-09-01T05:03:14.723Z,13.97
2022-09-01T05:04:14.735Z,13.97
2022-09-01T05:05:14.738Z,14.03
2022-09-01T05:06:14.681Z,14.04
2022-09-01T05:07:14.674Z,14.18
2022-09-01T05:08:14.681Z,14.28
2022-09-01T05:09:15.644Z,14.35
2022-09-01T05:10:14.640Z,14.44
2022-09-01T05:11:14.632Z,14.47
2022-09-01T05:12:15.784Z,14.43
2022-09-01T05:13:14.596Z,14.45
2022-09-01T05:14:14.604Z,14.51
2022-09-01T05:15:14.626Z,14.54
2022-09-01T05:16:14.620Z,14.54
2022-09-01T05:17:14.561Z,14.60
2022-09-01T05:18:14.571Z,14.66
2022-09-01T05:19:14.543Z,14.89
2022-09-01T05:20:14.560Z,15.06
2022-09-01T05:21:14.518Z,15.04
2022-09-01T05:22:14.500Z,15.02
2022-09-01T05:23:14.502Z,15.02
2022-09-01T05:24:14.460Z,14.97
2022-09-01T05:25:14.480Z,14.88
2022-09-01T05:26:14.471Z,14.84
2022-09-01T05:27:14.444Z,14.84
2022-09-01T05:28:14.429Z,14.85
2022-09-01T05:29:14.422Z,14.84
2022-09-01T05:30:14.445Z,14.82
2022-09-01T05:31:14.417Z,14.82
2022-09-01T05:32:14.405Z,14.82
2022-09-01T05:33:16.748Z,14.84
2022-09-01T05:34:14.361Z,14.84
2022-09-01T05:35:14.346Z,14.79
2022-09-01T05:36:14.384Z,14.79
2022-09-01T05:37:14.342Z,14.79
2022-09-01T05:38:14.332Z,14.85
2022-09-01T05:39:14.314Z,14.89
2022-09-01T05:40:14.331Z,14.91
2022-09-01T05:41:14.321Z,14.92
2022-09-01T05:42:14.292Z,14.92
2022-09-01T05:43:14.264Z,14.94
2022-09-01T05:44:14.257Z,14.89
2022-09-01T05:45:14.293Z,14.96
2022-09-01T05:46:14.263Z,14.94
2022-09-01T05:47:14.856Z,14.92
2022-09-01T05:48:15.211Z,15.00
2022-09-01T05:49:14.183Z,15.10
2022-09-01T05:50:14.798Z,15.11
2022-09-01T05:51:33.414Z,15.17
2022-09-01T05:52:15.163Z,15.24
2022-09-01T05:53:14.157Z,15.28
2022-09-01T05:54:14.133Z,15.35
2022-09-01T05:55:14.157Z,15.37
2022-09-01T05:56:14.115Z,15.28
2022-09-01T05:57:33.382Z,15.22
2022-09-01T05:58:15.099Z,15.22
2022-09-01T05:59:29.493Z,15.24
2022-09-01T06:00:15.117Z,15.28
2022-09-01T06:01:14.040Z,15.29
2022-09-01T06:02:14.180Z,15.27
2022-09-01T06:03:14.165Z,15.29
2022-09-01T06:04:14.032Z,15.49
2022-09-01T06:05:14.078Z,15.57
2022-09-01T06:06:14.004Z,15.68
2022-09-01T06:07:16.290Z,15.72
2022-09-01T06:08:13.977Z,15.79
2022-09-01T06:09:13.948Z,15.92
2022-09-01T06:10:13.933Z,16.15
2022-09-01T06:11:13.956Z,16.29
2022-09-01T06:12:13.935Z,16.41
2022-09-01T06:13:13.913Z,16.46
2022-09-01T06:14:13.921Z,16.46
2022-09-01T06:15:13.891Z,16.60
2022-09-01T06:16:13.982Z,16.86
2022-09-01T06:17:13.871Z,17.08
2022-09-01T06:18:13.887Z,17.11
2022-09-01T06:19:13.835Z,17.09
2022-09-01T06:20:13.840Z,16.96
2022-09-01T06:21:13.848Z,16.89
2022-09-01T06:22:13.855Z,16.72
2022-09-01T06:23:13.828Z,16.71
2022-09-01T06:24:13.805Z,16.97
2022-09-01T06:25:13.783Z,17.15
2022-09-01T06:26:13.814Z,17.39
2022-09-01T06:27:13.746Z,17.48
2022-09-01T06:28:13.760Z,17.51
2022-09-01T06:29:13.743Z,17.57
2022-09-01T06:30:13.741Z,17.78
2022-09-01T06:31:13.781Z,17.86
2022-09-01T06:32:13.719Z,18.05
2022-09-01T06:33:13.682Z,17.98
2022-09-01T06:34:13.676Z,18.16
2022-09-01T06:35:13.662Z,18.52
2022-09-01T06:36:13.717Z,18.50
2022-09-01T06:37:13.654Z,18.43
2022-09-01T06:38:13.623Z,18.45
2022-09-01T06:39:13.627Z,18.49
2022-09-01T06:40:13.656Z,18.58
2022-09-01T06:41:13.645Z,18.34
2022-09-01T06:42:13.589Z,18.47
2022-09-01T06:43:13.567Z,18.68
2022-09-01T06:44:14.661Z,18.89
2022-09-01T06:45:13.552Z,19.04
2022-09-01T06:46:13.621Z,18.95
2022-09-01T06:47:13.526Z,18.92
2022-09-01T06:48:13.549Z,18.95
2022-09-01T06:49:13.506Z,19.08
2022-09-01T06:50:13.643Z,19.16
2022-09-01T06:51:17.447Z,19.15
2022-09-01T06:52:14.480Z,19.04
2022-09-01T06:54:14.671Z,19.12
2022-09-01T06:55:13.462Z,19.07
2022-09-01T06:56:13.469Z,19.08
2022-09-01T06:58:14.411Z,19.15
2022-09-01T06:59:13.503Z,19.08
2022-09-01T07:00:13.428Z,19.09
2022-09-01T07:01:14.256Z,19.33
2022-09-01T07:02:17.309Z,19.58
2022-09-01T07:03:13.393Z,19.56
2022-09-01T07:04:13.504Z,19.47
2022-09-01T07:05:59.707Z,19.51
2022-09-01T07:06:59.079Z,19.54
2022-09-01T07:08:14.289Z,19.70
2022-09-01T07:09:21.553Z,19.70
2022-09-01T07:10:23.056Z,19.67
2022-09-01T07:12:07.558Z,19.71
2022-09-01T07:12:29.700Z,19.67
2022-09-01T07:13:14.243Z,19.66
2022-09-01T07:14:16.307Z,19.54
2022-09-01T07:16:32.466Z,20.00
2022-09-01T07:17:29.446Z,20.09
2022-09-01T07:18:14.183Z,19.94
2022-09-01T07:19:13.175Z,20.02
2022-09-01T07:20:28.479Z,20.07
2022-09-01T07:23:14.104Z,20.22
2022-09-01T07:24:13.124Z,20.06
2022-09-01T07:25:13.536Z,19.94
2022-09-01T07:26:24.637Z,19.99
2022-09-01T07:27:14.075Z,20.39
2022-09-01T07:28:15.663Z,20.77
2022-09-01T07:29:13.050Z,20.78
2022-09-01T07:30:13.088Z,21.25
2022-09-01T07:35:14.015Z,21.91
2022-09-01T07:36:29.471Z,22.08
2022-09-01T07:42:56.480Z,20.18
2022-09-01T07:43:13.917Z,22.28
2022-09-01T07:44:12.880Z,22.54
2022-09-01T07:45:28.840Z,22.50
2022-09-01T07:47:52.297Z,22.25
2022-09-01T07:48:35.440Z,22.23
2022-09-01T07:49:30.306Z,22.26
2022-09-01T07:50:37.550Z,22.20
2022-09-01T07:52:13.805Z,22.62
2022-09-01T07:53:12.916Z,22.85
2022-09-01T07:54:12.771Z,22.75
2022-09-01T07:55:12.763Z,23.12
2022-09-01T07:56:12.769Z,23.24
2022-09-01T07:57:12.731Z,23.41
2022-09-01T07:58:12.720Z,23.55
2022-09-01T07:59:15.191Z,23.68
2022-09-01T08:00:12.725Z,23.68
2022-09-01T08:01:12.737Z,23.32
2022-09-01T08:02:12.810Z,23.00
2022-09-01T08:03:12.820Z,22.84
2022-09-01T08:04:12.687Z,22.88
2022-09-01T08:05:12.670Z,22.94
2022-09-01T08:06:12.666Z,23.28
2022-09-01T08:07:16.111Z,23.44
2022-09-01T08:08:21.061Z,23.47
2022-09-01T08:09:27.336Z,23.62
2022-09-01T08:10:20.186Z,23.65
2022-09-01T08:11:13.621Z,23.58
2022-09-01T08:12:12.602Z,23.95
2022-09-01T08:13:15.358Z,23.87
2022-09-01T08:14:12.567Z,24.38
2022-09-01T08:15:13.027Z,24.51
2022-09-01T08:16:19.738Z,24.30
2022-09-01T08:17:17.739Z,24.58
2022-09-01T08:18:14.841Z,24.70
2022-09-01T08:19:19.633Z,24.80
2022-09-01T08:20:14.132Z,24.38
2022-09-01T08:21:12.523Z,24.36
2022-09-01T08:22:12.445Z,24.51
2022-09-01T08:23:12.458Z,24.23
2022-09-01T08:24:12.455Z,23.87
2022-09-01T08:25:12.453Z,23.88
2022-09-01T08:26:12.447Z,24.20
2022-09-01T08:27:12.442Z,24.16
2022-09-01T08:28:12.499Z,24.39
2022-09-01T08:29:12.410Z,24.13
2022-09-01T08:30:12.368Z,24.61
2022-09-01T08:31:12.451Z,24.14
2022-09-01T08:32:12.342Z,24.66
2022-09-01T08:33:12.340Z,24.81
2022-09-01T08:34:12.333Z,24.43
2022-09-01T08:35:12.337Z,24.69
2022-09-01T08:36:12.376Z,24.65
2022-09-01T08:37:12.309Z,24.54
2022-09-01T08:38:12.322Z,24.68
2022-09-01T08:39:12.287Z,24.61
2022-09-01T08:40:12.363Z,24.91
2022-09-01T08:41:12.294Z,24.88
2022-09-01T08:42:12.267Z,25.11
2022-09-01T08:43:15.436Z,25.33
2022-09-01T08:44:12.224Z,25.80
2022-09-01T08:45:12.228Z,25.98
2022-09-01T08:46:12.289Z,25.68
2022-09-01T08:47:13.653Z,25.28
2022-09-01T08:49:29.216Z,24.81
2022-09-01T08:50:13.169Z,24.85
2022-09-01T08:51:17.039Z,25.01
2022-09-01T08:52:13.138Z,25.03
2022-09-01T08:53:12.144Z,25.22
2022-09-01T08:54:12.123Z,25.23
2022-09-01T08:55:12.216Z,24.96
2022-09-01T08:56:12.135Z,25.16
2022-09-01T08:57:12.076Z,25.17
2022-09-01T08:58:12.075Z,25.21
2022-09-01T08:59:12.099Z,25.03
2022-09-01T09:00:12.713Z,25.06
2022-09-01T09:01:12.140Z,25.03
2022-09-01T09:02:12.161Z,25.17
2022-09-01T09:03:12.168Z,25.44
2022-09-01T09:04:12.019Z,25.54
2022-09-01T09:05:19.059Z,25.25
2022-09-01T09:06:13.025Z,25.21
2022-09-01T09:07:13.543Z,25.63
2022-09-01T09:08:11.956Z,25.96
2022-09-01T09:09:11.953Z,25.95
2022-09-01T09:10:12.111Z,26.18
2022-09-01T09:11:12.964Z,26.37
2022-09-01T09:12:12.345Z,26.28
2022-09-01T09:13:11.929Z,26.23
2022-09-01T09:14:11.900Z,26.41
2022-09-01T09:15:11.907Z,25.78
2022-09-01T09:16:11.977Z,25.77
2022-09-01T09:17:11.874Z,25.65
2022-09-01T09:18:27.105Z,25.93
2022-09-01T09:19:12.845Z,26.13
2022-09-01T09:20:11.845Z,26.97
2022-09-01T09:21:12.076Z,27.67
2022-09-01T09:22:11.829Z,27.10
2022-09-01T09:23:11.799Z,25.36
2022-09-01T09:24:11.779Z,24.86
2022-09-01T09:25:11.779Z,25.10
2022-09-01T09:26:16.663Z,25.33
2022-09-01T09:27:13.050Z,25.51
2022-09-01T09:28:11.770Z,26.05
2022-09-01T09:29:11.748Z,26.06
2022-09-01T09:30:12.021Z,26.06
2022-09-01T09:31:11.782Z,25.83
2022-09-01T09:32:44.359Z,25.63
2022-09-01T09:33:49.869Z,25.68
2022-09-01T09:34:13.181Z,25.99
2022-09-01T09:35:11.704Z,26.07
2022-09-01T09:36:11.713Z,25.99
2022-09-01T09:37:11.676Z,26.73
2022-09-01T09:38:11.652Z,26.75
2022-09-01T09:39:11.648Z,26.47
2022-09-01T09:40:11.632Z,26.75
2022-09-01T09:41:17.797Z,27.17
2022-09-01T09:42:13.218Z,27.93
2022-09-01T09:43:11.573Z,28.39
2022-09-01T09:44:11.635Z,28.62
2022-09-01T09:45:11.591Z,28.14
2022-09-01T09:46:23.422Z,27.64
2022-09-01T09:47:33.460Z,27.26
2022-09-01T09:48:12.531Z,27.30
2022-09-01T09:49:11.530Z,27.74
2022-09-01T09:50:11.526Z,27.95
2022-09-01T09:51:11.563Z,28.72
2022-09-01T09:52:11.493Z,28.26
2022-09-01T09:53:11.505Z,28.15
2022-09-01T09:54:11.508Z,28.29
2022-09-01T09:55:12.180Z,28.91
2022-09-01T09:56:11.464Z,29.20
2022-09-01T09:57:11.508Z,28.66
2022-09-01T09:58:11.446Z,27.39
2022-09-01T09:59:11.420Z,27.40
2022-09-01T10:00:11.433Z,27.89
2022-09-01T10:01:11.457Z,28.38
2022-09-01T10:02:11.424Z,26.96
2022-09-01T10:03:12.565Z,26.73
2022-09-01T10:04:11.490Z,27.25
2022-09-01T10:05:11.360Z,27.93
2022-09-01T10:06:11.331Z,28.00
2022-09-01T10:07:11.387Z,27.71
2022-09-01T10:08:12.361Z,27.98
2022-09-01T10:09:11.334Z,27.92
2022-09-01T10:10:11.347Z,26.56
2022-09-01T10:11:11.349Z,25.63
2022-09-01T10:12:11.300Z,24.70
2022-09-01T10:13:11.274Z,24.43
2022-09-01T10:14:13.774Z,24.73
2022-09-01T10:15:13.956Z,25.32
2022-09-01T10:16:11.416Z,24.28
2022-09-01T10:17:11.323Z,24.05
2022-09-01T10:18:20.736Z,25.10
2022-09-01T10:19:12.749Z,26.15
2022-09-01T10:20:11.380Z,26.31
2022-09-01T10:21:11.232Z,25.91
2022-09-01T10:22:11.171Z,25.10
2022-09-01T10:23:15.426Z,24.26
2022-09-01T10:24:21.174Z,25.26
2022-09-01T10:25:12.147Z,26.33
2022-09-01T10:26:11.188Z,26.81
2022-09-01T10:27:14.325Z,25.83
2022-09-01T10:28:11.111Z,24.39
2022-09-01T10:29:12.094Z,24.16
2022-09-01T10:30:12.603Z,25.01
2022-09-01T10:31:11.186Z,26.06
2022-09-01T10:32:31.443Z,25.70
2022-09-01T10:33:19.921Z,25.78
2022-09-01T10:34:12.041Z,25.10
2022-09-01T10:35:11.056Z,24.65
2022-09-01T10:36:11.055Z,24.05
2022-09-01T10:37:11.738Z,24.18
2022-09-01T10:38:12.168Z,25.04
2022-09-01T10:39:10.984Z,26.05
2022-09-01T10:40:11.071Z,26.70
2022-09-01T10:41:14.685Z,27.29
2022-09-01T10:42:13.141Z,27.51
2022-09-01T10:43:12.477Z,28.23
2022-09-01T10:44:10.937Z,27.12
2022-09-01T10:45:10.934Z,26.40
2022-09-01T10:46:15.604Z,25.35
2022-09-01T10:47:16.419Z,24.51
2022-09-01T10:48:13.272Z,23.56
2022-09-01T10:49:10.880Z,23.09
2022-09-01T10:50:11.239Z,22.50
2022-09-01T10:51:10.859Z,22.44
2022-09-01T10:52:14.099Z,22.30
2022-09-01T10:53:11.465Z,22.20
2022-09-01T10:54:10.847Z,22.11
2022-09-01T10:55:10.798Z,22.06
2022-09-01T10:56:23.395Z,22.10
2022-09-01T10:57:12.245Z,22.07
2022-09-01T10:59:31.216Z,22.00
2022-09-01T11:00:34.897Z,21.95
2022-09-01T11:01:13.339Z,21.75
2022-09-01T11:02:27.954Z,21.73
2022-09-01T11:04:11.770Z,21.48
2022-09-01T11:05:10.776Z,21.43
2022-09-01T11:06:12.890Z,21.43
2022-09-01T11:07:12.032Z,22.17
2022-09-01T11:08:17.742Z,22.17
2022-09-01T11:09:11.650Z,22.08
2022-09-01T11:10:11.856Z,22.11
2022-09-01T11:11:10.641Z,22.00
2022-09-01T11:12:10.652Z,22.15
2022-09-01T11:13:10.605Z,22.25
2022-09-01T11:14:10.619Z,22.25
2022-09-01T11:15:10.585Z,22.33
2022-09-01T11:16:10.621Z,22.36
2022-09-01T11:17:10.658Z,22.44
2022-09-01T11:18:10.577Z,22.38
2022-09-01T11:19:15.602Z,22.98
2022-09-01T11:20:11.535Z,22.60
2022-09-01T11:21:10.525Z,22.39
2022-09-01T11:22:11.383Z,22.04
2022-09-01T11:23:10.537Z,21.92
2022-09-01T11:24:10.491Z,21.82
2022-09-01T11:25:11.032Z,21.77
2022-09-01T11:26:25.750Z,21.69
2022-09-01T11:27:11.506Z,21.69
2022-09-01T11:28:10.438Z,21.69
2022-09-01T11:29:10.476Z,21.98
2022-09-01T11:30:10.441Z,22.15
2022-09-01T11:31:10.424Z,22.10
2022-09-01T11:32:10.476Z,21.98
2022-09-01T11:33:10.412Z,21.89
2022-09-01T11:34:10.418Z,21.95
2022-09-01T11:35:10.396Z,21.99
2022-09-01T11:36:10.399Z,21.96
2022-09-01T11:37:10.393Z,21.80
2022-09-01T11:38:10.339Z,21.76
2022-09-01T11:39:11.046Z,21.62
2022-09-01T11:40:10.431Z,21.61
2022-09-01T11:41:10.316Z,21.62
2022-09-01T11:42:10.330Z,21.66
2022-09-01T11:43:19.935Z,21.69
2022-09-01T11:44:11.317Z,21.79
2022-09-01T11:45:10.260Z,21.70
2022-09-01T11:46:11.512Z,21.69
2022-09-01T11:47:14.168Z,21.77
2022-09-01T11:48:10.246Z,21.85
2022-09-01T11:49:10.241Z,21.95
2022-09-01T11:50:10.215Z,22.15
2022-09-01T11:51:14.766Z,22.23
2022-09-01T11:52:10.205Z,22.23
2022-09-01T11:53:10.215Z,22.25
2022-09-01T11:54:10.172Z,22.06
2022-09-01T11:55:10.172Z,21.83
2022-09-01T11:56:10.164Z,21.70
2022-09-01T11:57:10.148Z,21.82
2022-09-01T11:58:13.425Z,22.04
2022-09-01T11:59:11.113Z,22.04
2022-09-01T12:00:10.094Z,22.11
2022-09-01T12:01:10.068Z,22.04
2022-09-01T12:02:10.180Z,22.13
2022-09-01T12:03:10.170Z,22.14
2022-09-01T12:04:10.076Z,22.10
2022-09-01T12:05:10.045Z,22.02
2022-09-01T12:06:10.031Z,22.18
2022-09-01T12:07:10.950Z,22.25
2022-09-01T12:08:10.048Z,22.32
2022-09-01T12:09:10.013Z,22.33
2022-09-01T12:10:09.991Z,22.29
2022-09-01T12:11:09.994Z,22.30
2022-09-01T12:12:09.976Z,22.26
2022-09-01T12:13:09.997Z,22.17
2022-09-01T12:14:11.538Z,22.13
2022-09-01T12:15:09.931Z,22.10
2022-09-01T12:16:18.693Z,22.11
2022-09-01T12:17:11.008Z,22.28
2022-09-01T12:18:09.932Z,23.03
2022-09-01T12:19:09.898Z,23.61
2022-09-01T12:20:09.899Z,24.91
2022-09-01T12:21:09.876Z,26.06
2022-09-01T12:22:09.865Z,26.92
2022-09-01T12:23:09.890Z,27.00
2022-09-01T12:24:09.858Z,26.85
2022-09-01T12:25:09.834Z,26.66
2022-09-01T12:26:09.820Z,27.39
2022-09-01T12:27:09.834Z,28.17
2022-09-01T12:28:11.144Z,28.63
2022-09-01T12:29:09.793Z,28.38
2022-09-01T12:30:09.766Z,28.74
2022-09-01T12:31:09.779Z,28.75
2022-09-01T12:32:09.810Z,28.86
2022-09-01T12:33:25.221Z,28.89
2022-09-01T12:34:10.737Z,28.41
2022-09-01T12:35:11.682Z,27.98
2022-09-01T12:36:09.714Z,28.59
2022-09-01T12:37:09.675Z,29.31
2022-09-01T12:38:09.762Z,29.56
2022-09-01T12:39:09.862Z,29.44
2022-09-01T12:40:09.692Z,29.81
2022-09-01T12:41:09.675Z,28.96
2022-09-01T12:42:09.655Z,27.45
2022-09-01T12:43:09.669Z,26.36
2022-09-01T12:44:09.637Z,25.04
2022-09-01T12:45:09.606Z,24.58
2022-09-01T12:46:09.649Z,23.88
2022-09-01T12:47:09.609Z,23.44
2022-09-01T12:48:09.613Z,23.23
2022-09-01T12:49:09.598Z,23.08
2022-09-01T12:50:09.570Z,22.85
2022-09-01T12:51:09.706Z,22.75
2022-09-01T12:52:09.537Z,22.62
2022-09-01T12:53:09.585Z,22.35
2022-09-01T12:54:09.692Z,22.18
2022-09-01T12:55:09.514Z,22.02
2022-09-01T12:56:09.499Z,22.04
2022-09-01T12:57:09.488Z,22.06
2022-09-01T12:58:09.508Z,21.98
2022-09-01T12:59:14.319Z,21.89
2022-09-01T13:00:10.446Z,21.91
2022-09-01T13:01:16.498Z,21.77
2022-09-01T13:02:10.716Z,21.72
2022-09-01T13:03:09.514Z,21.73
2022-09-01T13:04:09.412Z,21.64
2022-09-01T13:05:09.403Z,21.69
2022-09-01T13:06:09.395Z,21.67
2022-09-01T13:07:09.374Z,21.61
2022-09-01T13:08:09.406Z,21.51
2022-09-01T13:09:10.242Z,21.50
2022-09-01T13:10:09.365Z,21.50
2022-09-01T13:11:11.198Z,21.51
2022-09-01T13:12:09.308Z,21.51